Time;durP1;ratioP1;P1;durP2;ratioP2;P2;SDS_P1;SDS_P2;PMS_P1;PMS_P2;Temp;Humidity;BMP_temperature;BMP_pressure;BME280_temperature;BME280_humidity;BME280_pressure;Samples;Min_cycle;Max_cycle;Signal;HPM_P1;HPM_P2
2021/09/06 00:01:18;;;;;;;4.53;1.98;;;;;;;15.99;100.00;100515.06;5030255;28;20092;-77
2021/09/06 00:04:21;;;;;;;8.82;2.40;;;;;;;16.10;100.00;100515.19;5030120;28;20051;-78
2021/09/06 00:07:24;;;;;;;10.68;1.88;;;;;;;16.10;100.00;100509.56;5030054;28;20048;-78
2021/09/06 00:10:33;;;;;;;4.63;1.77;;;;;;;16.14;100.00;100510.09;5029978;28;20506;-76
2021/09/06 00:13:38;;;;;;;6.85;2.30;;;;;;;16.16;100.00;100507.56;5029560;28;20048;-76
2021/09/06 00:16:41;;;;;;;16.17;3.60;;;;;;;16.04;100.00;100514.38;5029776;28;20060;-77
2021/09/06 00:19:44;;;;;;;4.63;1.80;;;;;;;16.26;100.00;100511.75;5030138;28;20041;-76
2021/09/06 00:22:47;;;;;;;5.72;2.08;;;;;;;16.29;100.00;100510.75;5030312;28;20041;-76
2021/09/06 00:25:51;;;;;;;5.53;1.45;;;;;;;16.20;100.00;100505.28;5029886;28;20153;-78
2021/09/06 00:28:54;;;;;;;3.67;1.27;;;;;;;16.22;100.00;100508.38;5029719;28;20045;-78
2021/09/06 00:31:57;;;;;;;8.52;1.77;;;;;;;16.18;100.00;100505.03;5030150;28;20044;-78
2021/09/06 00:35:00;;;;;;;3.88;1.90;;;;;;;16.20;100.00;100507.34;5029843;28;20041;-77
2021/09/06 00:38:04;;;;;;;4.70;1.88;;;;;;;16.16;100.00;100506.78;5030047;28;20052;-78
2021/09/06 00:41:07;;;;;;;15.00;2.63;;;;;;;16.19;100.00;100506.56;5029938;28;20043;-78
2021/09/06 00:44:10;;;;;;;10.50;1.60;;;;;;;16.27;100.00;100507.66;5029597;28;20060;-78
2021/09/06 00:47:13;;;;;;;3.97;2.15;;;;;;;16.24;100.00;100508.66;5029338;28;20120;-78
2021/09/06 00:50:18;;;;;;;19.52;2.33;;;;;;;16.30;100.00;100512.28;5029632;28;20076;-77
2021/09/06 00:53:21;;;;;;;5.40;1.83;;;;;;;16.23;100.00;100511.97;5029230;28;20061;-78
2021/09/06 00:56:24;;;;;;;4.95;2.05;;;;;;;16.12;100.00;100523.88;5028645;28;20040;-77
2021/09/06 00:59:27;;;;;;;9.77;2.33;;;;;;;16.42;100.00;100508.28;5028664;28;20040;-76
2021/09/06 01:02:30;;;;;;;4.03;1.25;;;;;;;16.52;100.00;100512.47;5028523;28;20060;-76
2021/09/06 01:05:33;;;;;;;7.45;2.20;;;;;;;16.46;100.00;100514.44;5029358;28;20597;-78
2021/09/06 01:08:35;;;;;;;5.03;1.17;;;;;;;16.42;100.00;100513.91;5028112;28;20080;-77
2021/09/06 01:11:38;;;;;;;4.10;1.95;;;;;;;16.51;100.00;100508.13;5028348;28;20081;-76
2021/09/06 01:14:41;;;;;;;6.35;1.83;;;;;;;16.55;100.00;100511.47;5029233;28;20510;-76
2021/09/06 01:17:45;;;;;;;6.97;2.33;;;;;;;16.73;100.00;100504.69;5029320;28;20103;-76
2021/09/06 01:20:48;;;;;;;6.95;1.90;;;;;;;16.77;100.00;100496.78;5030385;28;20044;-77
2021/09/06 01:23:51;;;;;;;10.18;3.50;;;;;;;16.81;100.00;100504.97;5031623;28;20052;-79
2021/09/06 01:26:53;;;;;;;8.40;2.20;;;;;;;16.88;100.00;100505.28;5031196;28;20052;-79
2021/09/06 01:29:57;;;;;;;6.03;1.67;;;;;;;16.99;100.00;100504.56;5029346;28;20856;-79
2021/09/06 01:33:00;;;;;;;6.45;1.98;;;;;;;16.72;100.00;100503.13;5029765;28;20537;-77
2021/09/06 01:36:02;;;;;;;7.32;2.58;;;;;;;16.86;100.00;100507.06;5031375;28;20060;-77
2021/09/06 01:39:06;;;;;;;7.00;2.95;;;;;;;16.94;100.00;100502.50;5031291;28;20084;-77
2021/09/06 01:42:09;;;;;;;8.00;3.08;;;;;;;16.89;100.00;100506.81;5031259;28;20048;-78
2021/09/06 01:45:12;;;;;;;9.50;2.30;;;;;;;16.99;100.00;100494.09;5031318;28;20049;-80
2021/09/06 01:48:15;;;;;;;9.88;1.90;;;;;;;17.02;100.00;100497.94;5031484;28;20068;-79
2021/09/06 01:51:18;;;;;;;8.38;1.83;;;;;;;16.96;100.00;100499.94;5031044;28;20099;-77
2021/09/06 01:54:20;;;;;;;6.38;1.65;;;;;;;17.12;100.00;100490.81;5029954;28;20080;-77
2021/09/06 01:57:23;;;;;;;7.13;2.80;;;;;;;17.07;100.00;100492.34;5030680;28;20510;-77
2021/09/06 02:00:26;;;;;;;11.25;3.00;;;;;;;17.25;100.00;100499.56;5030546;28;20048;-77
2021/09/06 02:03:29;;;;;;;7.13;1.73;;;;;;;17.27;100.00;100497.03;5030490;28;20048;-80
2021/09/06 02:06:32;;;;;;;5.10;1.27;;;;;;;17.37;100.00;100495.50;5030718;28;20048;-79
2021/09/06 02:09:35;;;;;;;12.07;2.92;;;;;;;17.31;100.00;100494.72;5033241;28;20066;-80
2021/09/06 02:12:37;;;;;;;4.80;2.08;;;;;;;17.32;100.00;100482.97;5034121;28;20056;-80
2021/09/06 02:15:40;;;;;;;6.97;2.28;;;;;;;17.33;100.00;100489.34;5034343;28;20056;-79
2021/09/06 02:18:43;;;;;;;25.90;2.65;;;;;;;17.25;100.00;100482.69;5032916;28;20103;-80
2021/09/06 02:21:48;;;;;;;7.57;1.95;;;;;;;17.13;100.00;100486.75;5034323;28;20049;-79
2021/09/06 02:24:51;;;;;;;5.97;1.67;;;;;;;17.11;100.00;100486.44;5034410;28;20100;-79
2021/09/06 02:27:54;;;;;;;8.10;1.80;;;;;;;17.13;100.00;100486.75;5035398;28;20072;-79
2021/09/06 02:30:56;;;;;;;10.68;1.60;;;;;;;17.06;100.00;100481.59;5035301;28;20103;-79
2021/09/06 02:33:59;;;;;;;4.07;1.67;;;;;;;17.05;100.00;100485.66;5035085;28;20115;-79
2021/09/06 02:37:03;;;;;;;13.75;2.53;;;;;;;17.10;100.00;100476.47;5035329;28;20056;-79
2021/09/06 02:40:06;;;;;;;2.83;0.63;;;;;;;17.14;100.00;100485.44;5035509;28;20068;-79
2021/09/06 02:43:09;;;;;;;5.03;1.17;;;;;;;15.20;100.00;100498.63;5035152;28;20052;-77
2021/09/06 02:46:12;;;;;;;5.78;2.22;;;;;;;15.12;100.00;100505.16;5035218;28;20056;-79
2021/09/06 02:49:15;;;;;;;12.63;1.90;;;;;;;15.02;100.00;100512.19;5035038;28;20572;-77
2021/09/06 02:52:17;;;;;;;5.97;1.90;;;;;;;15.01;100.00;100510.63;5035363;28;20056;-77
2021/09/06 02:55:20;;;;;;;3.63;1.90;;;;;;;15.06;100.00;100502.28;5034254;28;20153;-77
2021/09/06 02:58:24;;;;;;;5.55;1.50;;;;;;;15.08;100.00;100507.41;5033640;28;20048;-77
2021/09/06 03:01:26;;;;;;;2.67;1.55;;;;;;;15.11;100.00;100501.59;5034383;28;20060;-77
2021/09/06 03:04:30;;;;;;;3.25;1.52;;;;;;;15.14;100.00;100511.03;5033968;28;20143;-79
2021/09/06 03:07:33;;;;;;;8.45;2.53;;;;;;;15.39;100.00;100489.91;5034051;28;20056;-80
2021/09/06 03:10:36;;;;;;;6.07;2.22;;;;;;;15.99;100.00;100497.44;5034173;28;20045;-80
2021/09/06 03:13:39;;;;;;;9.45;1.33;;;;;;;15.88;100.00;100484.06;5034179;28;20160;-80
2021/09/06 03:16:42;;;;;;;4.97;2.50;;;;;;;15.43;100.00;100494.09;5033790;28;20102;-80
2021/09/06 03:19:46;;;;;;;7.55;2.22;;;;;;;15.31;100.00;100488.81;5034404;28;20115;-76
2021/09/06 03:22:48;;;;;;;8.38;1.65;;;;;;;16.01;100.00;100492.88;5034438;28;20099;-77
2021/09/06 03:25:51;;;;;;;6.72;1.83;;;;;;;16.18;100.00;100487.38;5037067;28;20114;-77
2021/09/06 03:28:54;;;;;;;5.57;2.53;;;;;;;16.16;100.00;100484.31;5039944;28;20067;-77
2021/09/06 03:31:57;;;;;;;4.32;1.35;;;;;;;16.23;100.00;100484.63;5039929;28;20092;-77
2021/09/06 03:35:00;;;;;;;4.88;2.03;;;;;;;16.21;100.00;100481.56;5039923;28;20123;-77
2021/09/06 03:38:03;;;;;;;8.00;2.25;;;;;;;16.16;100.00;100485.09;5039956;28;20080;-77
2021/09/06 03:41:07;;;;;;;7.20;2.25;;;;;;;16.09;100.00;100479.16;5039301;28;20052;-77
2021/09/06 03:44:10;;;;;;;9.10;2.67;;;;;;;16.02;100.00;100483.19;5033327;28;20052;-77
2021/09/06 03:47:13;;;;;;;12.15;2.25;;;;;;;16.02;100.00;100486.00;5033545;28;20057;-77
2021/09/06 03:50:16;;;;;;;3.13;1.40;;;;;;;15.98;100.00;100484.69;5033871;28;20099;-77
2021/09/06 03:53:19;;;;;;;5.07;2.67;;;;;;;15.86;100.00;100495.03;5033556;28;20084;-77
2021/09/06 03:56:22;;;;;;;7.78;2.53;;;;;;;15.82;100.00;100497.28;5032873;28;20072;-77
2021/09/06 03:59:24;;;;;;;5.15;1.52;;;;;;;15.83;100.00;100490.44;5032713;28;20111;-77
2021/09/06 04:02:27;;;;;;;3.78;1.30;;;;;;;15.80;100.00;100497.03;5033038;28;20057;-77
2021/09/06 04:05:30;;;;;;;6.25;2.03;;;;;;;15.78;100.00;100493.94;5033088;28;20045;-77
2021/09/06 04:08:33;;;;;;;5.53;2.15;;;;;;;15.67;100.00;100491.03;5033153;28;20056;-77
2021/09/06 04:11:36;;;;;;;8.68;1.98;;;;;;;15.67;100.00;100493.81;5032712;28;20063;-77
2021/09/06 04:14:39;;;;;;;7.63;2.20;;;;;;;15.60;100.00;100488.66;5032751;28;20048;-77
2021/09/06 04:17:42;;;;;;;4.03;1.55;;;;;;;15.60;100.00;100488.66;5032681;28;20079;-77
2021/09/06 04:20:45;;;;;;;5.82;2.45;;;;;;;15.59;100.00;100492.72;5032804;28;20124;-77
2021/09/06 04:23:48;;;;;;;7.13;2.85;;;;;;;15.55;100.00;100492.94;5033131;28;20041;-77
2021/09/06 04:26:51;;;;;;;2.40;1.30;;;;;;;15.66;100.00;100489.47;5033229;28;20096;-77
2021/09/06 04:29:54;;;;;;;11.40;2.08;;;;;;;15.61;100.00;100490.97;5013274;28;20100;-77
2021/09/06 04:32:57;;;;;;;5.88;1.55;;;;;;;15.60;100.00;100492.22;5012432;28;20053;-77
2021/09/06 04:36:00;;;;;;;4.32;1.50;;;;;;;15.63;100.00;100498.91;5013327;28;20049;-77
2021/09/06 04:39:03;;;;;;;5.32;2.10;;;;;;;15.60;100.00;100505.50;5013204;28;20519;-80
2021/09/06 04:42:07;;;;;;;17.77;2.35;;;;;;;15.54;100.00;100501.84;5012295;28;20080;-79
2021/09/06 04:45:10;;;;;;;5.70;1.52;;;;;;;15.51;100.00;100494.41;5011759;28;20104;-76
2021/09/06 04:48:13;;;;;;;3.42;1.30;;;;;;;15.51;100.00;100497.22;5013263;28;20057;-76
2021/09/06 04:51:16;;;;;;;6.00;2.33;;;;;;;15.56;100.00;100494.50;5013177;28;20053;-79
2021/09/06 04:54:19;;;;;;;4.07;1.40;;;;;;;15.56;100.00;100496.50;5012394;28;20057;-80
2021/09/06 04:57:23;;;;;;;3.45;1.55;;;;;;;15.56;100.00;100490.91;5011965;28;20487;-78
2021/09/06 05:00:26;;;;;;;5.80;0.85;;;;;;;15.56;100.00;100493.72;5012183;28;20088;-80
2021/09/06 05:03:29;;;;;;;5.05;2.28;;;;;;;15.61;100.00;100495.81;5012015;28;20068;-80
2021/09/06 05:06:33;;;;;;;7.40;2.25;;;;;;;15.58;100.00;100496.78;5012365;28;20044;-79
2021/09/06 05:09:35;;;;;;;4.50;1.25;;;;;;;15.63;100.00;100496.09;5012052;28;20452;-79
2021/09/06 05:12:38;;;;;;;11.35;2.05;;;;;;;15.66;100.00;100503.50;5012260;28;21442;-80
2021/09/06 05:15:41;;;;;;;8.30;1.98;;;;;;;15.61;100.00;100505.00;5011459;28;20180;-80
2021/09/06 05:18:44;;;;;;;9.77;2.97;;;;;;;15.51;100.00;100497.22;5017831;28;20040;-80
2021/09/06 05:21:48;;;;;;;10.48;3.28;;;;;;;15.54;100.00;100505.44;5031204;28;20120;-79
2021/09/06 05:24:54;;;;;;;7.60;2.22;;;;;;;15.55;100.00;100506.22;5031247;28;20051;-79
2021/09/06 05:27:57;;;;;;;1.77;1.55;;;;;;;15.54;100.00;100505.44;5031222;28;20566;-79
2021/09/06 05:31:02;;;;;;;4.15;2.38;;;;;;;15.61;100.00;100510.63;5031004;28;20048;-79
2021/09/06 05:34:05;;;;;;;3.83;1.90;;;;;;;15.63;100.00;100515.75;5030630;28;20536;-77
2021/09/06 05:37:08;;;;;;;1.67;1.10;;;;;;;15.60;100.00;100513.91;5031374;28;20569;-76
2021/09/06 05:40:11;;;;;;;7.90;2.08;;;;;;;15.57;100.00;100512.09;5031100;28;20041;-76
2021/09/06 05:43:14;;;;;;;6.13;1.85;;;;;;;15.59;100.00;100515.19;5031599;28;20048;-76
2021/09/06 05:46:17;;;;;;;10.57;2.85;;;;;;;15.58;100.00;100524.88;5034776;28;20084;-76
2021/09/06 05:49:20;;;;;;;4.78;2.38;;;;;;;15.57;100.00;100523.34;5034516;28;20048;-76
2021/09/06 05:52:23;;;;;;;2.97;1.33;;;;;;;15.60;100.00;100523.13;5035014;28;20048;-77
2021/09/06 05:55:26;;;;;;;5.18;1.30;;;;;;;15.54;100.00;100527.91;5033983;28;20052;-76
2021/09/06 05:58:29;;;;;;;3.13;2.15;;;;;;;15.43;100.00;100513.75;5033946;28;20056;-76
2021/09/06 06:01:32;;;;;;;4.75;1.23;;;;;;;15.39;100.00;100515.97;5034559;28;20422;-76
2021/09/06 06:04:35;;;;;;;3.90;1.63;;;;;;;15.40;100.00;100525.91;5034463;28;20047;-76
2021/09/06 06:07:38;;;;;;;11.65;2.53;;;;;;;15.40;100.00;100519.53;5034323;28;20122;-76
2021/09/06 06:10:41;;;;;;;5.47;1.83;;;;;;;15.36;100.00;100519.75;5034351;28;20133;-76
2021/09/06 06:13:44;;;;;;;5.20;1.73;;;;;;;15.38;100.00;100534.06;5033591;28;20052;-77
2021/09/06 06:16:46;;;;;;;4.45;2.22;;;;;;;15.43;100.00;100535.38;5034478;28;20068;-76
2021/09/06 06:19:50;;;;;;;5.68;2.17;;;;;;;15.48;100.00;100537.53;5034530;28;20498;-76
2021/09/06 06:22:53;;;;;;;5.75;2.53;;;;;;;15.51;100.00;100547.75;5034553;28;20048;-75
2021/09/06 06:25:56;;;;;;;16.55;5.00;;;;;;;15.53;100.00;100545.22;5034643;28;20505;-76
2021/09/06 06:28:59;;;;;;;13.68;3.97;;;;;;;15.66;100.00;100548.44;5034402;28;20040;-76
2021/09/06 06:32:02;;;;;;;6.25;2.55;;;;;;;15.83;100.00;100540.97;5034441;28;20041;-76
2021/09/06 06:35:06;;;;;;;6.40;2.72;;;;;;;15.48;100.00;100543.91;5033807;28;20454;-76
2021/09/06 06:38:09;;;;;;;12.27;2.03;;;;;;;16.29;100.00;100544.47;5034119;28;20064;-76
2021/09/06 06:41:12;;;;;;;12.80;3.47;;;;;;;16.46;100.00;100536.94;5033838;28;20076;-76
2021/09/06 06:44:15;;;;;;;7.57;2.95;;;;;;;16.39;100.00;100543.03;5033816;28;20048;-76
2021/09/06 06:47:18;;;;;;;5.68;2.25;;;;;;;16.62;100.00;100541.97;5033477;28;20098;-76
2021/09/06 06:50:22;;;;;;;10.68;2.83;;;;;;;16.68;100.00;100554.00;5033934;28;20096;-76
2021/09/06 06:53:24;;;;;;;6.93;2.17;;;;;;;16.57;100.00;100553.16;5033203;28;20052;-76
2021/09/06 06:56:27;;;;;;;12.02;3.17;;;;;;;16.78;100.00;100551.00;5033333;28;20048;-76
2021/09/06 06:59:30;;;;;;;11.50;3.20;;;;;;;16.89;100.00;100553.91;5032099;28;20125;-76
2021/09/06 07:02:33;;;;;;;8.30;2.22;;;;;;;16.87;100.00;100556.44;5033667;28;20056;-76
2021/09/06 07:05:36;;;;;;;9.52;3.63;;;;;;;16.70;100.00;100555.56;5033014;28;20117;-76
2021/09/06 07:08:38;;;;;;;8.38;2.70;;;;;;;16.81;100.00;100552.81;5033372;28;20060;-76
2021/09/06 07:11:41;;;;;;;7.55;2.88;;;;;;;16.81;100.00;100561.25;5033617;28;20060;-76
2021/09/06 07:14:44;;;;;;;13.93;2.92;;;;;;;16.89;100.00;100563.09;5033416;28;20079;-77
2021/09/06 07:17:47;;;;;;;7.93;2.28;;;;;;;16.92;100.00;100566.94;5033561;28;20068;-77
2021/09/06 07:20:50;;;;;;;8.70;3.10;;;;;;;16.99;100.00;100570.06;5033632;28;20048;-74
2021/09/06 07:23:53;;;;;;;5.00;1.92;;;;;;;17.00;100.00;100574.41;5033838;28;20601;-75
2021/09/06 07:26:56;;;;;;;7.90;2.63;;;;;;;17.17;100.00;100578.09;5031141;28;20073;-75
2021/09/06 07:29:59;;;;;;;11.35;2.97;;;;;;;17.05;100.00;100575.72;5030334;28;20514;-75
2021/09/06 07:33:05;;;;;;;4.95;1.50;;;;;;;17.21;100.00;100586.31;5031450;28;20102;-75
2021/09/06 07:36:08;;;;;;;3.63;1.92;;;;;;;17.16;100.00;100590.63;5031480;28;20091;-75
2021/09/06 07:39:12;;;;;;;9.80;2.00;;;;;;;17.32;100.00;100592.78;5031800;28;20040;-75
2021/09/06 07:42:16;;;;;;;7.72;2.80;;;;;;;17.50;100.00;100600.03;5033828;28;20211;-75
2021/09/06 07:45:18;;;;;;;7.85;1.80;;;;;;;17.61;100.00;100597.28;5032881;28;20072;-76
2021/09/06 07:48:21;;;;;;;7.38;2.85;;;;;;;17.74;100.00;100597.56;5032766;28;20066;-75
2021/09/06 07:51:24;;;;;;;12.55;3.65;;;;;;;18.05;100.00;100605.09;5032417;28;20056;-78
2021/09/06 07:54:27;;;;;;;11.38;3.65;;;;;;;18.27;100.00;100598.72;5032824;28;20052;-76
2021/09/06 07:57:30;;;;;;;20.92;4.63;;;;;;;18.51;100.00;100599.03;5033112;28;20124;-76
2021/09/06 08:00:33;;;;;;;5.55;2.83;;;;;;;18.69;100.00;100609.81;5032549;28;20048;-73
2021/09/06 08:03:36;;;;;;;14.95;4.30;;;;;;;18.90;100.00;100611.09;5031974;28;20084;-72
2021/09/06 08:06:40;;;;;;;10.68;3.17;;;;;;;19.05;100.00;100614.41;5031647;28;20100;-73
2021/09/06 08:09:43;;;;;;;9.27;3.83;;;;;;;19.23;100.00;100599.72;5032437;28;20137;-72
2021/09/06 08:12:46;;;;;;;11.40;3.50;;;;;;;19.21;100.00;100602.28;5032325;28;20099;-75
2021/09/06 08:15:49;;;;;;;9.20;3.65;;;;;;;19.39;100.00;100607.41;5032486;28;20043;-74
2021/09/06 08:18:52;;;;;;;19.38;3.90;;;;;;;19.53;100.00;100611.97;5032729;28;20190;-74
2021/09/06 08:21:58;;;;;;;15.18;3.53;;;;;;;19.86;100.00;100611.06;5032137;28;20068;-72
2021/09/06 08:25:06;;;;;;;17.75;4.15;;;;;;;20.14;100.00;100599.63;5032115;28;20200;-74
2021/09/06 08:28:09;;;;;;;11.00;3.60;;;;;;;20.46;100.00;100616.91;5032252;28;20095;-74
2021/09/06 08:31:13;;;;;;;12.57;4.22;;;;;;;20.60;100.00;100607.25;5031986;28;20044;-73
2021/09/06 08:34:16;;;;;;;14.52;4.20;;;;;;;20.79;100.00;100611.72;5032059;28;20056;-72
2021/09/06 08:37:19;;;;;;;10.85;4.10;;;;;;;21.02;100.00;100604.56;5032182;28;20059;-73
2021/09/06 08:40:23;;;;;;;16.70;4.70;;;;;;;21.38;100.00;100598.81;5032180;28;20052;-74
2021/09/06 08:43:27;;;;;;;13.20;4.32;;;;;;;21.75;100.00;100596.81;5036434;28;20049;-75
2021/09/06 08:46:30;;;;;;;18.95;5.13;;;;;;;21.79;100.00;100600.09;5036836;28;20052;-73
2021/09/06 08:49:33;;;;;;;15.07;3.72;;;;;;;22.11;100.00;100602.28;5037326;28;20063;-75
2021/09/06 08:52:37;;;;;;;20.63;5.05;;;;;;;22.08;100.00;100592.78;5036687;28;20040;-74
2021/09/06 08:55:40;;;;;;;17.42;5.95;;;;;;;22.18;100.00;100602.41;5036512;28;20049;-74
2021/09/06 08:58:43;;;;;;;18.77;4.60;;;;;;;22.25;100.00;100607.47;5032181;28;20043;-74
2021/09/06 09:01:48;;;;;;;15.63;5.82;;;;;;;22.35;100.00;100596.50;5030755;28;20049;-74
2021/09/06 09:05:03;;;;;;;10.80;4.95;;;;;;;22.42;100.00;100604.38;5031400;28;20182;-74
2021/09/06 09:08:06;;;;;;;13.27;4.35;;;;;;;22.41;100.00;100603.63;5031238;28;20510;-74
2021/09/06 09:11:10;;;;;;;26.42;6.22;;;;;;;22.58;100.00;100601.28;5031485;28;20053;-74
2021/09/06 09:14:13;;;;;;;13.55;5.05;;;;;;;22.85;100.00;100604.22;5031093;28;20068;-72
2021/09/06 09:17:16;;;;;;;13.48;5.75;;;;;;;23.00;100.00;100593.09;5031479;28;20205;-73
2021/09/06 09:20:19;;;;;;;14.00;5.05;;;;;;;23.24;100.00;100587.19;5031158;28;20095;-75
2021/09/06 09:23:22;;;;;;;19.10;6.45;;;;;;;23.43;100.00;100587.91;5031028;28;20044;-74
2021/09/06 09:26:25;;;;;;;14.13;4.60;;;;;;;23.67;100.00;100581.97;5030736;28;20098;-74
2021/09/06 09:29:28;;;;;;;11.68;4.18;;;;;;;23.85;100.00;100583.91;5030684;28;20040;-74
2021/09/06 09:32:35;;;;;;;24.58;4.97;;;;;;;23.97;100.00;100584.44;5031103;28;20053;-73
2021/09/06 09:35:39;;;;;;;15.82;5.35;;;;;;;24.06;100.00;100586.84;5030690;28;20043;-73
2021/09/06 09:38:42;;;;;;;14.30;4.93;;;;;;;24.17;100.00;100585.81;5031098;28;20045;-73
2021/09/06 09:41:49;;;;;;;16.50;5.85;;;;;;;24.28;100.00;100591.25;5031178;28;20048;-74
2021/09/06 09:44:54;;;;;;;14.57;4.22;;;;;;;24.35;100.00;100594.16;5030934;28;20403;-72
2021/09/06 09:47:59;;;;;;;14.02;5.30;;;;;;;24.41;100.00;100596.88;5031675;28;20474;-74
2021/09/06 09:51:01;;;;;;;18.50;4.20;;;;;;;24.38;100.00;100589.44;5031728;28;20064;-74
2021/09/06 09:54:06;;;;;;;12.93;5.28;;;;;;;24.28;100.00;100580.59;5031114;28;20561;-74
2021/09/06 09:57:12;;;;;;;11.23;4.78;;;;;;;24.26;100.00;100588.16;5012343;28;20521;-74
2021/09/06 10:00:16;;;;;;;17.98;5.20;;;;;;;24.22;100.00;100582.06;5012456;28;20520;-74
2021/09/06 10:03:22;;;;;;;7.45;2.65;;;;;;;24.32;100.00;100585.97;5011056;28;20562;-74
2021/09/06 10:06:26;;;;;;;11.43;4.28;;;;;;;24.40;100.00;100592.50;5011334;28;20052;-73
2021/09/06 10:09:40;;;;;;;14.65;4.95;;;;;;;24.55;100.00;100592.66;5010928;28;20116;-73
2021/09/06 10:13:04;;;;;;;17.05;5.65;;;;;;;24.52;100.00;100588.06;5014821;28;20411;-73
2021/09/06 10:16:08;;;;;;;16.13;4.47;;;;;;;24.63;100.00;100590.63;5031730;28;20108;-73
2021/09/06 10:19:11;;;;;;;16.27;5.40;;;;;;;24.57;100.00;100595.72;5032116;28;20120;-73
2021/09/06 10:22:27;;;;;;;19.67;6.03;;;;;;;24.54;100.00;100591.13;5031828;28;20447;-73
2021/09/06 10:25:36;;;;;;;10.05;5.15;;;;;;;24.50;100.00;100590.69;5031197;28;20045;-73
2021/09/06 10:28:40;;;;;;;13.68;5.10;;;;;;;24.52;100.00;100588.81;5031188;28;20060;-74
2021/09/06 10:31:44;;;;;;;13.10;5.75;;;;;;;24.64;100.00;100595.03;5034890;28;20044;-73
2021/09/06 10:34:47;;;;;;;10.48;4.95;;;;;;;24.63;100.00;100593.47;4976575;28;20171;-73
2021/09/06 10:38:02;;;;;;;14.10;5.35;;;;;;;24.62;100.00;100587.00;4976499;28;20130;-74
2021/09/06 10:41:13;;;;;;;13.43;4.82;;;;;;;24.77;100.00;100586.44;4976163;28;20456;-73
2021/09/06 10:44:18;;;;;;;13.23;4.85;;;;;;;24.83;100.00;100595.59;4976053;28;20536;-73
2021/09/06 10:47:23;;;;;;;23.20;6.22;;;;;;;24.92;100.00;100597.94;4975982;28;20066;-73
2021/09/06 10:50:27;;;;;;;20.63;6.25;;;;;;;25.02;100.00;100595.34;4975583;28;20154;-73
2021/09/06 10:53:30;;;;;;;17.25;5.18;;;;;;;25.17;100.00;100596.22;4975941;28;20078;-71
2021/09/06 10:56:34;;;;;;;16.92;3.97;;;;;;;25.25;100.00;100596.28;4975732;28;20065;-75
2021/09/06 10:59:43;;;;;;;13.45;4.55;;;;;;;25.50;100.00;100601.03;4975436;28;20104;-77
2021/09/06 11:02:49;;;;;;;15.60;5.88;;;;;;;25.83;100.00;100592.81;4975196;28;20050;-76
2021/09/06 11:05:54;;;;;;;21.60;6.10;;;;;;;25.84;100.00;100597.97;4975832;28;20130;-76
2021/09/06 11:09:01;;;;;;;12.88;5.53;;;;;;;25.97;100.00;100597.06;4975889;28;20046;-76
2021/09/06 11:12:07;;;;;;;19.48;5.53;;;;;;;26.26;100.00;100589.94;4976217;28;20561;-76
2021/09/06 11:15:20;;;;;;;14.73;6.13;;;;;;;25.97;100.00;100597.06;4994959;28;20185;-76
2021/09/06 11:18:30;;;;;;;20.13;8.05;;;;;;;26.05;100.00;100589.28;4994581;28;20524;-76
2021/09/06 11:21:33;;;;;;;18.55;6.05;;;;;;;25.97;100.00;100585.63;4994778;28;20053;-76
2021/09/06 11:24:35;;;;;;;15.90;5.68;;;;;;;26.12;100.00;100592.19;4994932;28;20066;-76
2021/09/06 11:27:39;;;;;;;10.68;5.32;;;;;;;26.24;100.00;100587.66;4994521;28;20061;-76
2021/09/06 11:30:44;;;;;;;32.08;8.85;;;;;;;26.39;100.00;100581.22;4994257;28;20064;-77
2021/09/06 11:33:57;;;;;;;19.83;6.03;;;;;;;26.63;100.00;100574.97;5020583;28;20450;-77
2021/09/06 11:37:06;;;;;;;15.63;5.20;;;;;;;26.54;100.00;100575.53;5034319;28;20052;-76
2021/09/06 11:40:09;;;;;;;16.42;5.70;;;;;;;26.72;100.00;100574.41;5034357;28;20240;-77
2021/09/06 11:43:13;;;;;;;13.63;5.45;;;;;;;26.96;100.00;100582.41;5033549;28;20052;-77
2021/09/06 11:46:17;;;;;;;16.95;5.65;;;;;;;27.11;100.00;100580.88;5033026;28;20519;-77
2021/09/06 11:49:20;;;;;;;15.60;5.88;;;;;;;27.00;100.00;100582.81;5033594;28;20057;-77
2021/09/06 11:52:36;;;;;;;16.00;5.20;;;;;;;26.77;100.00;100578.41;5032638;28;20053;-76
2021/09/06 11:55:54;;;;;;;17.33;7.07;;;;;;;26.91;100.00;100574.03;5041995;28;20518;-76
2021/09/06 11:58:59;;;;;;;20.38;4.38;;;;;;;26.73;100.00;100566.59;5033384;28;20415;-75
2021/09/06 12:02:10;;;;;;;13.05;4.50;;;;;;;26.74;100.00;100566.03;5033591;28;20124;-75
2021/09/06 12:05:15;;;;;;;11.23;4.93;;;;;;;26.99;100.00;100564.13;5033614;28;20051;-76
2021/09/06 12:08:18;;;;;;;12.77;4.57;;;;;;;26.82;100.00;100572.50;5033706;28;20063;-76
2021/09/06 12:11:20;;;;;;;15.50;5.18;;;;;;;26.78;100.00;100574.22;5032848;28;20044;-75
2021/09/06 12:14:23;;;;;;;36.53;6.20;;;;;;;26.85;100.00;100573.47;5032825;28;20060;-76
2021/09/06 12:17:34;;;;;;;13.57;4.38;;;;;;;26.88;100.00;100575.94;5032865;28;20053;-76
2021/09/06 12:20:40;;;;;;;11.32;4.30;;;;;;;26.57;100.00;100574.41;5033052;28;20534;-76
2021/09/06 12:23:49;;;;;;;13.15;4.57;;;;;;;26.75;100.00;100573.28;5032913;28;20084;-75
2021/09/06 12:26:53;;;;;;;14.27;4.47;;;;;;;25.77;100.00;100575.13;5033290;28;20043;-76
2021/09/06 12:29:59;;;;;;;14.10;4.80;;;;;;;26.82;100.00;100574.59;5013632;28;20095;-76
2021/09/06 12:33:02;;;;;;;12.07;4.55;;;;;;;27.08;100.00;100565.63;5013233;28;20579;-76
2021/09/06 12:36:05;;;;;;;10.40;4.43;;;;;;;27.40;100.00;100570.72;5013651;28;20049;-76
2021/09/06 12:39:08;;;;;;;12.75;4.85;;;;;;;27.76;100.00;100559.75;5013321;28;20048;-75
2021/09/06 12:42:11;;;;;;;15.38;4.18;;;;;;;27.41;100.00;100560.81;5016813;28;20056;-77
2021/09/06 12:45:14;;;;;;;14.18;5.10;;;;;;;27.78;100.00;100557.06;5032468;28;20142;-75
2021/09/06 12:48:17;;;;;;;15.73;5.55;;;;;;;27.90;100.00;100563.09;5032749;28;20091;-76
2021/09/06 12:51:21;;;;;;;12.60;4.47;;;;;;;27.85;100.00;100544.06;5031956;28;20156;-76
2021/09/06 12:54:26;;;;;;;14.88;4.60;;;;;;;27.69;100.00;100549.06;5031557;28;20053;-77
2021/09/06 12:57:29;;;;;;;9.93;4.38;;;;;;;27.61;100.00;100560.53;5032119;28;20399;-76
2021/09/06 13:00:32;;;;;;;19.73;4.30;;;;;;;27.48;100.00;100551.47;5030509;28;20107;-76
2021/09/06 13:03:35;;;;;;;11.15;4.03;;;;;;;27.48;100.00;100545.72;5031164;28;20057;-76
2021/09/06 13:06:37;;;;;;;15.93;4.70;;;;;;;27.67;100.00;100546.81;5031347;28;20060;-76
2021/09/06 13:09:40;;;;;;;8.88;3.65;;;;;;;27.68;100.00;100551.19;5031294;28;20048;-76
2021/09/06 13:12:44;;;;;;;9.18;4.20;;;;;;;27.53;100.00;100547.59;5030669;28;20122;-76
2021/09/06 13:15:48;;;;;;;8.68;3.55;;;;;;;26.88;100.00;100553.06;5032123;28;20047;-76
2021/09/06 13:18:51;;;;;;;7.10;3.80;;;;;;;27.80;100.00;100542.94;5032435;28;20044;-76
2021/09/06 13:21:54;;;;;;;14.10;4.93;;;;;;;28.07;100.00;100554.66;5027728;28;20119;-75
2021/09/06 13:24:56;;;;;;;15.00;3.03;;;;;;;28.03;100.00;100554.28;5031187;28;20100;-77
2021/09/06 13:27:59;;;;;;;11.85;3.08;;;;;;;27.92;100.00;100555.44;5031991;28;20095;-76
2021/09/06 13:31:02;;;;;;;8.73;3.15;;;;;;;27.91;100.00;100553.94;5016260;28;20093;-76
2021/09/06 13:34:05;;;;;;;8.00;3.55;;;;;;;27.97;100.00;100556.56;5031477;28;20069;-74
2021/09/06 13:37:08;;;;;;;11.73;4.15;;;;;;;27.74;100.00;100550.97;5031938;28;20048;-75
2021/09/06 13:40:11;;;;;;;7.88;3.42;;;;;;;28.34;100.00;100552.75;5031651;28;20083;-75
2021/09/06 13:43:14;;;;;;;11.52;3.58;;;;;;;28.58;100.00;100545.53;5032395;28;20060;-75
2021/09/06 13:46:17;;;;;;;11.52;4.47;;;;;;;28.58;100.00;100545.53;5032168;28;20079;-75
2021/09/06 13:49:21;;;;;;;8.43;3.10;;;;;;;28.60;100.00;100542.84;5032751;28;20048;-76
2021/09/06 13:52:29;;;;;;;9.00;4.65;;;;;;;28.33;100.00;100531.94;5031308;28;20049;-74
2021/09/06 13:55:32;;;;;;;9.65;2.88;;;;;;;28.29;100.00;100530.81;5031992;28;20104;-74
2021/09/06 13:58:38;;;;;;;12.55;3.85;;;;;;;28.17;100.00;100524.81;5031754;28;20155;-75
2021/09/06 14:01:44;;;;;;;6.30;3.63;;;;;;;28.13;100.00;100530.16;5033905;28;20050;-75